Time;durP1;ratioP1;P1;durP2;ratioP2;P2;SDS_P1;SDS_P2;PMS_P1;PMS_P2;Temp;Humidity;BMP_temperature;BMP_pressure;BME280_temperature;BME280_humidity;BME280_pressure;Samples;Min_cycle;Max_cycle;Signal;HPM_P1;HPM_P2
2022/03/24 00:00:06;;;;;;;84.20;36.93;;;4.60;60.50;;;;;;10371389;28;20044;-85
2022/03/24 00:05:08;;;;;;;87.50;37.23;;;4.70;60.20;;;;;;10366578;28;20034;-83
2022/03/24 00:10:10;;;;;;;93.90;41.93;;;4.70;59.90;;;;;;10371689;28;20038;-84
2022/03/24 00:15:10;;;;;;;90.13;37.80;;;4.80;61.00;;;;;;10371338;28;20136;-82
2022/03/24 00:20:14;;;;;;;85.90;39.17;;;4.80;60.90;;;;;;10371334;28;20536;-83
2022/03/24 00:25:15;;;;;;;88.47;39.07;;;4.90;60.40;;;;;;10371143;28;20041;-83
2022/03/24 00:30:15;;;;;;;83.50;37.23;;;4.80;61.10;;;;;;10384460;28;20548;-87
2022/03/24 00:35:16;;;;;;;88.03;37.70;;;4.80;60.80;;;;;;10375710;28;20041;-83
2022/03/24 00:40:18;;;;;;;82.80;39.63;;;4.80;61.30;;;;;;10371316;28;20072;-84
2022/03/24 00:45:19;;;;;;;78.47;35.87;;;4.80;61.90;;;;;;10370671;28;20030;-87
2022/03/24 00:50:19;;;;;;;83.90;35.43;;;4.80;61.30;;;;;;10370245;28;20121;-83
2022/03/24 00:55:20;;;;;;;81.23;37.50;;;4.80;61.50;;;;;;10369799;28;20124;-85
2022/03/24 01:00:25;;;;;;;78.93;36.03;;;4.90;61.40;;;;;;10374109;28;20033;-83
2022/03/24 01:05:28;;;;;;;77.47;34.87;;;4.90;61.50;;;;;;10370055;28;20034;-87
2022/03/24 01:10:29;;;;;;;73.10;32.27;;;4.80;62.60;;;;;;10383276;28;20547;-85
2022/03/24 01:15:30;;;;;;;71.63;32.50;;;4.70;62.30;;;;;;10370487;28;20056;-84
2022/03/24 01:20:31;;;;;;;69.83;30.47;;;4.80;63.00;;;;;;10368588;28;20030;-86
2022/03/24 01:25:31;;;;;;;65.87;30.00;;;5.10;62.00;;;;;;10369437;28;20042;-88
2022/03/24 01:30:32;;;;;;;67.00;31.73;;;5.20;61.70;;;;;;10368663;28;20049;-84
2022/03/24 01:35:33;;;;;;;62.67;30.27;;;5.40;61.80;;;;;;10368209;28;20029;-84
2022/03/24 01:40:33;;;;;;;67.53;31.60;;;5.40;61.50;;;;;;10368393;28;20067;-86
2022/03/24 01:45:34;;;;;;;63.73;30.67;;;5.60;61.40;;;;;;10368809;28;20038;-83
2022/03/24 01:50:36;;;;;;;66.03;31.40;;;5.70;61.20;;;;;;10367917;28;20109;-83
2022/03/24 01:55:38;;;;;;;56.73;28.40;;;5.70;61.60;;;;;;10367902;28;20030;-84
2022/03/24 02:00:40;;;;;;;63.17;30.33;;;5.80;61.00;;;;;;10368327;28;20026;-83
2022/03/24 02:05:42;;;;;;;62.30;29.67;;;5.90;60.60;;;;;;10370430;28;20105;-86
2022/03/24 02:10:43;;;;;;;67.50;29.03;;;5.90;60.60;;;;;;10369059;28;20030;-87
2022/03/24 02:15:43;;;;;;;63.80;28.43;;;5.80;60.60;;;;;;10407012;22;20475;-83
2022/03/24 02:20:44;;;;;;;61.30;29.97;;;5.70;60.80;;;;;;10378564;28;20472;-87
2022/03/24 02:25:46;;;;;;;64.77;28.53;;;5.60;61.40;;;;;;10406719;28;20477;-85
2022/03/24 02:30:47;;;;;;;53.70;26.80;;;5.50;61.90;;;;;;10407517;28;20037;-83
2022/03/24 02:35:50;;;;;;;61.83;27.57;;;5.60;61.70;;;;;;10393536;28;20059;-84
2022/03/24 02:40:51;;;;;;;54.43;27.23;;;5.50;61.60;;;;;;10402589;28;20076;-84
2022/03/24 02:45:53;;;;;;;53.97;26.30;;;5.30;62.30;;;;;;10393079;28;20477;-85
2022/03/24 02:50:56;;;;;;;64.00;27.63;;;4.90;63.30;;;;;;10374309;28;20481;-84
2022/03/24 02:55:57;;;;;;;56.97;28.13;;;4.70;64.00;;;;;;10368269;28;20083;-83
2022/03/24 03:00:58;;;;;;;61.07;25.87;;;4.60;64.60;;;;;;10391030;28;20037;-83
2022/03/24 03:05:58;;;;;;;61.17;28.53;;;4.70;65.10;;;;;;10385616;28;20030;-87
2022/03/24 03:10:59;;;;;;;56.37;26.80;;;4.70;64.70;;;;;;10407828;28;20456;-85
2022/03/24 03:15:59;;;;;;;64.80;28.93;;;4.80;64.50;;;;;;10405860;28;20097;-84
2022/03/24 03:21:00;;;;;;;64.37;30.60;;;4.70;65.10;;;;;;10383547;28;20049;-84
2022/03/24 03:26:01;;;;;;;62.17;29.53;;;4.50;65.40;;;;;;10379578;28;20045;-84
2022/03/24 03:31:02;;;;;;;70.30;31.47;;;4.40;65.80;;;;;;10402915;28;20044;-85
2022/03/24 03:36:04;;;;;;;77.17;33.37;;;4.30;66.30;;;;;;10388934;28;20038;-83
2022/03/24 03:41:05;;;;;;;65.40;29.97;;;4.00;66.70;;;;;;10379447;28;20044;-84
2022/03/24 03:46:08;;;;;;;67.33;29.57;;;4.00;67.20;;;;;;10405162;28;20026;-83
2022/03/24 03:51:09;;;;;;;68.37;30.17;;;3.90;67.50;;;;;;10400277;28;20040;-85
2022/03/24 03:56:10;;;;;;;65.80;32.30;;;3.80;67.80;;;;;;10412999;28;20029;-83
2022/03/24 04:01:10;;;;;;;67.33;31.70;;;3.70;68.50;;;;;;10433510;23;20453;-83
2022/03/24 04:06:12;;;;;;;68.73;30.87;;;3.70;68.70;;;;;;10358961;28;20509;-82
2022/03/24 04:11:13;;;;;;;69.90;31.90;;;3.70;69.40;;;;;;10369557;28;20544;-84
2022/03/24 04:16:14;;;;;;;66.53;30.30;;;3.70;70.20;;;;;;10347043;28;20021;-81
2022/03/24 04:21:16;;;;;;;66.47;30.20;;;3.80;69.90;;;;;;10350692;28;20030;-83
2022/03/24 04:26:16;;;;;;;76.07;34.10;;;3.90;69.60;;;;;;10360981;28;20088;-83
2022/03/24 04:31:17;;;;;;;71.37;33.67;;;3.90;69.50;;;;;;10329961;28;20034;-82
2022/03/24 04:36:18;;;;;;;60.97;30.30;;;3.90;69.50;;;;;;10329020;28;20030;-84
2022/03/24 04:41:18;;;;;;;63.43;30.47;;;3.80;69.90;;;;;;10312726;28;20084;-86
2022/03/24 04:46:19;;;;;;;71.07;30.90;;;3.80;70.20;;;;;;10329128;28;20116;-85
2022/03/24 04:51:19;;;;;;;73.10;31.63;;;3.70;71.00;;;;;;10330108;28;20026;-83
2022/03/24 04:56:20;;;;;;;71.10;31.23;;;3.70;71.40;;;;;;10406885;23;20076;-86
2022/03/24 05:01:21;;;;;;;70.90;32.57;;;3.70;71.20;;;;;;10382961;28;20030;-83
2022/03/24 05:06:21;;;;;;;74.57;33.07;;;3.70;71.60;;;;;;10369660;28;20041;-85
2022/03/24 05:11:22;;;;;;;69.17;30.33;;;3.70;71.50;;;;;;10419889;28;20021;-86
2022/03/24 05:16:22;;;;;;;70.07;31.60;;;3.70;71.70;;;;;;10417492;28;20030;-83
2022/03/24 05:21:24;;;;;;;67.27;30.40;;;3.70;72.00;;;;;;10360936;28;20377;-81
2022/03/24 05:26:25;;;;;;;68.57;31.20;;;3.70;72.20;;;;;;10365081;28;20042;-84
2022/03/24 05:31:26;;;;;;;71.03;31.73;;;3.80;72.40;;;;;;10365581;28;20037;-84
2022/03/24 05:36:27;;;;;;;68.63;33.40;;;3.80;72.30;;;;;;10369519;28;20594;-87
2022/03/24 05:41:27;;;;;;;70.83;31.53;;;3.90;72.20;;;;;;10360872;28;20034;-84
2022/03/24 05:46:48;;;;;;;77.13;32.03;;;4.00;72.20;;;;;;10358355;28;20033;-84
2022/03/24 05:51:50;;;;;;;66.27;30.57;;;4.10;72.20;;;;;;10345034;28;20121;-82
2022/03/24 05:56:59;;;;;;;71.40;32.60;;;4.10;71.70;;;;;;10346933;28;20054;-82
2022/03/24 06:02:00;;;;;;;70.20;32.47;;;4.30;71.70;;;;;;10341301;28;20080;-87
2022/03/24 06:07:01;;;;;;;68.93;32.73;;;4.40;71.60;;;;;;10351932;28;20037;-84
2022/03/24 06:12:02;;;;;;;64.10;29.77;;;4.50;71.50;;;;;;10340317;28;20407;-83
2022/03/24 06:17:04;;;;;;;68.23;31.03;;;4.70;71.40;;;;;;10355372;28;20022;-84
2022/03/24 06:22:05;;;;;;;63.53;30.80;;;4.80;71.50;;;;;;10342114;28;20565;-84
2022/03/24 06:27:06;;;;;;;63.67;31.03;;;5.00;71.30;;;;;;10351671;28;20140;-86
2022/03/24 06:32:07;;;;;;;64.60;31.77;;;5.10;71.00;;;;;;10366353;28;20112;-84
2022/03/24 06:37:07;;;;;;;67.23;31.37;;;5.30;70.50;;;;;;10365853;28;20335;-88
2022/03/24 06:42:09;;;;;;;67.27;33.20;;;5.40;70.20;;;;;;10367865;28;20470;-84
2022/03/24 06:47:09;;;;;;;66.00;32.13;;;5.60;70.30;;;;;;10367266;28;20441;-84
2022/03/24 06:52:10;;;;;;;68.30;34.93;;;5.70;70.20;;;;;;10367429;28;20061;-84
2022/03/24 06:57:14;;;;;;;69.20;33.60;;;5.80;70.40;;;;;;10366809;28;20061;-84
2022/03/24 07:02:15;;;;;;;63.60;32.40;;;5.90;70.20;;;;;;10367313;28;20460;-84
2022/03/24 07:07:15;;;;;;;67.13;34.37;;;6.10;69.70;;;;;;10366806;28;20034;-85
2022/03/24 07:12:19;;;;;;;73.13;34.47;;;6.40;69.10;;;;;;10374777;28;20568;-88
2022/03/24 07:17:20;;;;;;;59.87;32.07;;;6.60;69.00;;;;;;10356741;28;20516;-84
2022/03/24 07:22:20;;;;;;;67.47;32.73;;;6.80;68.20;;;;;;10374013;28;20065;-88
2022/03/24 07:27:21;;;;;;;61.43;31.67;;;7.20;68.10;;;;;;10374693;28;20037;-87
2022/03/24 07:32:22;;;;;;;64.93;33.67;;;7.50;66.80;;;;;;10356613;28;20035;-83
2022/03/24 07:37:22;;;;;;;61.63;31.83;;;7.90;66.30;;;;;;10355982;28;20523;-84
2022/03/24 07:42:23;;;;;;;56.83;31.20;;;8.30;65.90;;;;;;10374156;28;20068;-84
2022/03/24 07:47:24;;;;;;;55.27;29.17;;;8.70;64.80;;;;;;10373430;28;20052;-84
2022/03/24 07:52:28;;;;;;;64.10;33.93;;;9.10;63.60;;;;;;10373463;28;20409;-83
2022/03/24 07:57:30;;;;;;;69.10;31.07;;;9.30;61.80;;;;;;10372851;28;20068;-84
2022/03/24 08:02:31;;;;;;;61.60;31.70;;;9.60;62.60;;;;;;10354911;28;20029;-84
2022/03/24 08:07:32;;;;;;;55.93;30.03;;;9.80;60.70;;;;;;10372522;28;20037;-84
2022/03/24 08:12:32;;;;;;;59.17;29.97;;;10.10;60.50;;;;;;10373117;28;20473;-84
2022/03/24 08:17:33;;;;;;;68.67;32.60;;;10.40;59.90;;;;;;10372327;28;20030;-84
2022/03/24 08:22:33;;;;;;;58.27;30.47;;;10.60;58.40;;;;;;10371551;28;20034;-84
2022/03/24 08:27:37;;;;;;;53.83;30.03;;;10.90;59.10;;;;;;10371713;28;20587;-84
2022/03/24 08:32:39;;;;;;;55.53;29.37;;;11.00;59.10;;;;;;10371478;28;20080;-84
2022/03/24 08:37:40;;;;;;;53.67;28.17;;;11.40;57.80;;;;;;10371251;28;20037;-83
2022/03/24 08:42:42;;;;;;;47.05;25.83;;;11.40;56.60;;;;;;10371515;28;20056;-84
2022/03/24 08:47:43;;;;;;;43.85;24.65;;;11.70;57.70;;;;;;10353240;28;20061;-85
2022/03/24 08:52:44;;;;;;;40.58;21.42;;;12.10;54.60;;;;;;10370349;28;20137;-85
2022/03/24 08:57:45;;;;;;;39.13;19.35;;;12.20;53.90;;;;;;10353536;28;20029;-83
2022/03/24 09:02:49;;;;;;;44.05;25.38;;;12.50;51.90;;;;;;10370103;28;20401;-83
2022/03/24 09:07:50;;;;;;;48.65;25.85;;;12.80;53.70;;;;;;10369917;28;20188;-84
2022/03/24 09:12:51;;;;;;;47.47;24.75;;;13.10;52.90;;;;;;10352192;28;20032;-84
2022/03/24 09:17:51;;;;;;;42.92;24.17;;;13.20;53.10;;;;;;10369941;28;20032;-86
2022/03/24 09:22:52;;;;;;;35.40;20.27;;;13.20;50.90;;;;;;10369804;28;20081;-84
2022/03/24 09:27:53;;;;;;;33.83;18.27;;;13.30;51.60;;;;;;10369198;28;20544;-87
2022/03/24 09:32:53;;;;;;;31.33;15.98;;;13.40;51.50;;;;;;10368495;28;20029;-84
2022/03/24 09:37:54;;;;;;;28.23;15.23;;;13.70;48.80;;;;;;10369563;28;20030;-84
2022/03/24 09:42:57;;;;;;;24.08;13.55;;;13.70;46.70;;;;;;10369041;28;20022;-84
2022/03/24 09:47:58;;;;;;;24.23;12.73;;;13.70;46.10;;;;;;10351263;28;20473;-84
2022/03/24 09:52:59;;;;;;;24.98;13.50;;;14.00;44.70;;;;;;10350665;28;20069;-85
2022/03/24 09:58:00;;;;;;;45.58;25.02;;;14.20;45.60;;;;;;10368642;28;20031;-84
2022/03/24 10:03:16;;;;;;;29.98;16.70;;;14.50;45.90;;;;;;10368083;28;20085;-87
2022/03/24 10:08:18;;;;;;;30.08;15.93;;;14.30;44.50;;;;;;10368716;28;20034;-84
2022/03/24 10:13:41;;;;;;;47.20;25.33;;;14.40;45.30;;;;;;10367885;28;20061;-84
2022/03/24 10:18:57;;;;;;;29.02;16.30;;;14.50;46.00;;;;;;10367803;28;20021;-85
2022/03/24 10:24:03;;;;;;;29.48;16.92;;;14.60;44.20;;;;;;10349777;28;20101;-84
2022/03/24 10:29:03;;;;;;;;;;;14.80;43.90;;;;;;10368268;28;20517;-84
2022/03/24 10:34:06;;;;;;;24.15;13.07;;;14.80;41.40;;;;;;10367010;28;19992;-84
2022/03/24 10:39:08;;;;;;;21.52;11.63;;;14.80;40.90;;;;;;10367472;28;20053;-86
2022/03/24 10:44:12;;;;;;;19.55;10.07;;;14.90;42.10;;;;;;10372129;28;20036;-84
2022/03/24 10:49:26;;;;;;;17.75;9.65;;;15.10;37.90;;;;;;10375461;28;20564;-83
2022/03/24 10:54:48;;;;;;;26.50;14.82;;;15.30;40.80;;;;;;10375190;28;20125;-85
2022/03/24 10:59:58;;;;;;;23.23;11.63;;;15.80;37.00;;;;;;10375590;28;20084;-84
2022/03/24 11:05:01;;;;;;;17.48;10.00;;;16.10;40.30;;;;;;10375509;28;20473;-84
2022/03/24 11:10:11;;;;;;;17.13;8.88;;;16.00;37.60;;;;;;10374553;28;20505;-82
2022/03/24 11:15:12;;;;;;;14.05;7.88;;;15.80;36.40;;;;;;10375322;28;20034;-84
2022/03/24 11:20:38;;;;;;;16.42;9.18;;;15.60;37.60;;;;;;10357179;28;20084;-84
2022/03/24 11:25:39;;;;;;;14.98;8.27;;;15.80;36.50;;;;;;10375217;28;20048;-84
2022/03/24 11:30:40;;;;;;;14.98;8.10;;;15.70;36.70;;;;;;10356370;28;20026;-84
2022/03/24 11:35:41;;;;;;;20.92;12.07;;;15.50;37.20;;;;;;10373973;28;20120;-87
2022/03/24 11:40:42;;;;;;;12.18;7.65;;;15.80;38.50;;;;;;10373545;28;20430;-84
2022/03/24 11:46:06;;;;;;;16.08;8.38;;;15.80;38.10;;;;;;10373368;28;20026;-84
2022/03/24 11:51:24;;;;;;;15.18;6.85;;;16.30;38.90;;;;;;10373318;28;20029;-85
2022/03/24 11:56:25;;;;;;;12.98;6.43;;;16.00;36.30;;;;;;10372254;28;20180;-89
2022/03/24 12:01:29;;;;;;;11.00;6.65;;;16.10;38.20;;;;;;10373154;28;20157;-87
2022/03/24 12:06:46;;;;;;;10.70;5.90;;;16.20;37.30;;;;;;10355152;28;20030;-84
2022/03/24 12:11:50;;;;;;;13.55;5.63;;;16.40;39.30;;;;;;10372461;28;20381;-84
2022/03/24 12:16:53;;;;;;;9.07;5.28;;;16.60;37.70;;;;;;10367539;28;20087;-84
2022/03/24 12:21:56;;;;;;;12.70;7.18;;;16.40;38.60;;;;;;10371779;28;20030;-84
2022/03/24 12:26:59;;;;;;;12.10;6.15;;;16.70;37.40;;;;;;10367987;28;20062;-85
2022/03/24 12:32:11;;;;;;;145.60;99.13;;;16.30;38.20;;;;;;10324635;28;20033;-85
2022/03/24 12:37:27;;;;;;;8.48;5.57;;;16.40;38.80;;;;;;10359331;28;20036;-85
2022/03/24 12:42:38;;;;;;;7.10;4.28;;;16.60;37.70;;;;;;10339931;28;20041;-85
2022/03/24 12:47:43;;;;;;;7.60;4.03;;;16.70;38.40;;;;;;10347806;28;20070;-84
2022/03/24 12:52:58;;;;;;;7.40;4.17;;;16.80;37.50;;;;;;10362353;28;20033;-84
2022/03/24 12:58:04;;;;;;;8.60;3.42;;;16.70;36.50;;;;;;10368607;28;20050;-84
2022/03/24 13:03:05;;;;;;;8.77;3.78;;;16.80;37.50;;;;;;10370218;28;20057;-83
2022/03/24 13:08:09;;;;;;;6.93;3.55;;;16.60;37.50;;;;;;10367931;28;20041;-86
2022/03/24 13:13:10;;;;;;;7.72;3.72;;;16.60;37.90;;;;;;10370881;28;20030;-84
2022/03/24 13:18:14;;;;;;;8.10;3.97;;;16.70;38.20;;;;;;10370406;28;20030;-85
2022/03/24 13:23:15;;;;;;;7.35;3.90;;;16.70;40.00;;;;;;10368225;28;20088;-84
2022/03/24 13:28:18;;;;;;;7.75;3.85;;;16.70;38.30;;;;;;10367776;28;20038;-85
2022/03/24 13:33:20;;;;;;;5.65;3.45;;;16.60;38.50;;;;;;10369089;28;20026;-83
2022/03/24 13:38:22;;;;;;;6.78;2.92;;;16.70;40.30;;;;;;10368609;28;20037;-85
2022/03/24 13:43:24;;;;;;;5.57;2.70;;;16.80;39.90;;;;;;10368835;28;20040;-82
2022/03/24 13:48:27;;;;;;;4.93;3.00;;;16.70;40.60;;;;;;10366697;28;20041;-85
2022/03/24 13:53:30;;;;;;;11.00;3.50;;;16.60;40.40;;;;;;10381524;28;20054;-83
2022/03/24 13:58:31;;;;;;;6.70;2.90;;;16.60;40.50;;;;;;10367115;28;20065;-84
2022/03/24 14:03:37;;;;;;;6.70;2.95;;;16.40;41.20;;;;;;10368486;28;20371;-84
2022/03/24 14:08:47;;;;;;;6.75;3.30;;;16.30;41.90;;;;;;10367322;28;20042;-83
2022/03/24 14:13:52;;;;;;;5.95;3.17;;;16.30;41.80;;;;;;10343395;28;20505;-87
2022/03/24 14:19:17;;;;;;;6.63;3.22;;;16.00;41.40;;;;;;10353808;28;20034;-85
2022/03/24 14:24:53;;;;;;;8.02;3.38;;;15.80;42.20;;;;;;10337167;28;20069;-84
2022/03/24 14:30:05;;;;;;;7.25;3.75;;;15.70;42.70;;;;;;10359008;28;20057;-83
2022/03/24 14:35:10;;;;;;;7.45;3.58;;;15.60;42.80;;;;;;10367135;28;20351;-86
2022/03/24 14:40:14;;;;;;;;;;;15.60;43.60;;;;;;10365456;28;20042;-86
2022/03/24 14:45:15;;;;;;;8.43;3.33;;;15.60;44.10;;;;;;10438879;22;19951;-83
2022/03/24 14:50:15;;;;;;;4.50;2.70;;;15.60;44.40;;;;;;10445968;28;20043;-82
2022/03/24 14:55:16;;;;;;;10.85;5.68;;;15.50;44.70;;;;;;10421629;28;20032;-82
2022/03/24 15:00:18;;;;;;;8.52;4.53;;;15.50;44.90;;;;;;10442949;28;20124;-82
2022/03/24 15:05:19;;;;;;;8.80;4.40;;;15.20;45.50;;;;;;10430214;28;20059;-83
2022/03/24 15:10:19;;;;;;;8.93;4.00;;;15.10;46.20;;;;;;10467557;28;20041;-84
2022/03/24 15:20:39;;;;;;;9.32;3.40;;;14.90;46.60;;;;;;10448023;28;20036;-83
2022/03/24 15:25:42;;;;;;;8.57;4.07;;;14.90;47.50;;;;;;10438343;28;20401;-87
2022/03/24 15:30:43;;;;;;;7.30;3.40;;;14.80;47.90;;;;;;10377285;28;20034;-88
2022/03/24 15:35:44;;;;;;;9.35;3.60;;;14.70;47.50;;;;;;10392184;28;20017;-84
2022/03/24 15:40:45;;;;;;;12.65;5.30;;;14.60;48.10;;;;;;10406691;28;20040;-82
2022/03/24 15:45:46;;;;;;;8.10;4.32;;;14.50;48.40;;;;;;10379662;28;20056;-81
2022/03/24 15:50:47;;;;;;;9.48;4.93;;;14.50;47.80;;;;;;10404714;28;20025;-81
2022/03/24 15:55:47;;;;;;;59.50;28.95;;;14.40;48.10;;;;;;10398485;28;20033;-81
2022/03/24 16:00:48;;;;;;;12.38;5.32;;;14.30;48.80;;;;;;10413865;28;20031;-81
2022/03/24 16:05:49;;;;;;;13.35;6.22;;;14.20;48.10;;;;;;10407297;28;20033;-82
2022/03/24 16:10:49;;;;;;;48.50;20.65;;;14.20;48.70;;;;;;10410848;28;20028;-83
2022/03/24 16:15:50;;;;;;;18.67;8.80;;;14.10;48.70;;;;;;10381782;28;20026;-82
2022/03/24 16:20:51;;;;;;;172.38;79.45;;;13.90;48.80;;;;;;10354639;28;20648;-82
2022/03/24 16:25:51;;;;;;;51.00;21.15;;;13.80;49.60;;;;;;10399709;28;20037;-81
2022/03/24 16:30:53;;;;;;;20.63;9.68;;;13.60;50.20;;;;;;10392206;28;20414;-81
2022/03/24 16:35:54;;;;;;;14.20;7.32;;;13.50;50.50;;;;;;10404000;28;20021;-82
2022/03/24 16:40:55;;;;;;;15.60;7.00;;;13.30;51.10;;;;;;10425110;22;20560;-81
2022/03/24 16:45:56;;;;;;;15.07;7.32;;;13.10;51.70;;;;;;10411718;28;20045;-80
2022/03/24 16:50:57;;;;;;;17.35;7.00;;;12.70;53.40;;;;;;10412141;28;20033;-79
2022/03/24 16:55:57;;;;;;;14.70;7.18;;;12.40;53.00;;;;;;10409787;28;20041;-79
2022/03/24 17:00:58;;;;;;;13.15;6.05;;;12.10;54.50;;;;;;10411773;28;20095;-82
2022/03/24 17:05:58;;;;;;;20.08;7.85;;;11.50;55.40;;;;;;10411097;28;20049;-80
2022/03/24 17:11:00;;;;;;;18.87;8.03;;;11.00;56.60;;;;;;10452482;23;20277;-80
2022/03/24 17:16:01;;;;;;;18.10;8.33;;;10.50;57.40;;;;;;10434427;28;20029;-80
2022/03/24 17:21:02;;;;;;;16.63;7.83;;;10.10;58.50;;;;;;10442800;28;20041;-82
2022/03/24 17:26:02;;;;;;;18.97;8.80;;;9.80;58.60;;;;;;10444694;28;20084;-82
2022/03/24 17:31:03;;;;;;;24.77;10.20;;;9.40;59.80;;;;;;10396747;28;20556;-82
2022/03/24 17:36:04;;;;;;;29.20;10.73;;;9.20;60.40;;;;;;10409419;28;20030;-84
2022/03/24 17:41:05;;;;;;;24.27;10.43;;;8.90;60.90;;;;;;10409662;28;20444;-80
2022/03/24 17:46:05;;;;;;;25.43;10.93;;;8.70;61.30;;;;;;10412072;28;20096;-79
2022/03/24 17:51:06;;;;;;;29.33;11.93;;;8.50;62.20;;;;;;10378751;28;20029;-81
2022/03/24 17:56:07;;;;;;;27.23;10.97;;;8.40;62.90;;;;;;10389706;28;20022;-80
2022/03/24 18:01:09;;;;;;;30.13;13.20;;;8.20;63.20;;;;;;10384724;28;20022;-83
2022/03/24 18:06:10;;;;;;;25.77;11.80;;;8.20;63.90;;;;;;10373287;28;20034;-82
2022/03/24 18:11:12;;;;;;;30.30;11.70;;;8.00;64.80;;;;;;10375175;28;20042;-81
2022/03/24 18:16:13;;;;;;;28.50;12.70;;;7.90;65.30;;;;;;10377560;28;20033;-80
2022/03/24 18:21:13;;;;;;;21.23;10.77;;;7.80;65.50;;;;;;10381785;28;20044;-80
2022/03/24 18:26:15;;;;;;;29.30;11.83;;;7.70;65.40;;;;;;10375041;28;20041;-84
2022/03/24 18:31:15;;;;;;;23.83;11.57;;;7.60;66.30;;;;;;10379039;28;20065;-80
2022/03/24 18:36:16;;;;;;;25.20;11.93;;;7.60;66.30;;;;;;10388544;28;20120;-81
2022/03/24 18:41:19;;;;;;;27.70;11.10;;;7.50;66.40;;;;;;10392947;28;20104;-82
2022/03/24 18:46:20;;;;;;;25.27;11.40;;;7.40;66.60;;;;;;10388057;28;20647;-81
2022/03/24 18:51:21;;;;;;;23.67;11.03;;;7.40;66.90;;;;;;10388992;28;20021;-82
2022/03/24 18:56:23;;;;;;;27.73;12.23;;;7.30;67.60;;;;;;10377406;28;20093;-80
2022/03/24 19:01:24;;;;;;;24.20;11.90;;;7.30;67.60;;;;;;10378034;28;20492;-84
2022/03/24 19:06:25;;;;;;;26.90;12.00;;;7.30;67.80;;;;;;10387669;28;20400;-81
2022/03/24 19:11:25;;;;;;;33.93;12.63;;;7.20;68.70;;;;;;10377189;28;20064;-81
2022/03/24 19:16:26;;;;;;;22.40;12.27;;;7.20;68.50;;;;;;10394038;28;20017;-86
2022/03/24 19:21:27;;;;;;;25.67;11.63;;;7.20;68.10;;;;;;10390733;28;20489;-80
2022/03/24 19:26:28;;;;;;;30.60;12.33;;;7.10;68.40;;;;;;10381490;28;20164;-79
2022/03/24 19:31:29;;;;;;;25.50;13.50;;;7.00;68.50;;;;;;10395320;28;20034;-80
2022/03/24 19:36:32;;;;;;;26.63;12.03;;;6.90;68.80;;;;;;10382123;28;20033;-79
2022/03/24 19:41:34;;;;;;;31.50;15.10;;;6.90;68.40;;;;;;10393057;28;20060;-79
2022/03/24 19:46:36;;;;;;;28.90;13.43;;;6.90;69.40;;;;;;10388651;28;20049;-80
2022/03/24 19:51:37;;;;;;;30.43;14.87;;;6.60;69.30;;;;;;10390495;28;20099;-80
2022/03/24 19:56:38;;;;;;;32.43;13.73;;;6.50;69.70;;;;;;10389090;28;20068;-81
2022/03/24 20:01:39;;;;;;;36.40;16.43;;;6.50;69.70;;;;;;10391618;28;20116;-81
2022/03/24 20:06:40;;;;;;;38.07;18.70;;;6.40;69.90;;;;;;10395160;28;20515;-81
2022/03/24 20:11:42;;;;;;;40.77;19.37;;;6.30;69.90;;;;;;10393054;28;20430;-82
2022/03/24 20:16:44;;;;;;;46.33;20.90;;;6.20;70.10;;;;;;10395518;28;20525;-82
2022/03/24 20:21:45;;;;;;;44.37;19.93;;;6.10;70.40;;;;;;10399903;28;20029;-85
2022/03/24 20:26:46;;;;;;;42.93;20.27;;;6.00;70.40;;;;;;10394913;28;20045;-81
2022/03/24 20:31:46;;;;;;;44.20;19.03;;;5.90;71.00;;;;;;10395675;28;20664;-80
2022/03/24 20:36:47;;;;;;;40.37;18.43;;;5.80;70.70;;;;;;10397807;28;20485;-85
2022/03/24 20:41:48;;;;;;;40.33;18.37;;;5.80;71.20;;;;;;10394682;28;20061;-86
2022/03/24 20:46:49;;;;;;;38.47;17.80;;;5.80;71.40;;;;;;10395441;28;20029;-81
2022/03/24 20:51:51;;;;;;;39.17;17.37;;;5.70;71.70;;;;;;10400886;28;20100;-87
2022/03/24 20:56:51;;;;;;;40.57;17.67;;;5.60;71.80;;;;;;10395992;28;20060;-83
2022/03/24 21:01:53;;;;;;;43.90;19.13;;;5.60;72.10;;;;;;10392200;28;20499;-81
2022/03/24 21:06:53;;;;;;;39.73;17.53;;;5.40;72.10;;;;;;10389268;28;20039;-83
2022/03/24 21:11:54;;;;;;;42.40;18.13;;;5.30;72.60;;;;;;10392051;28;20062;-81
2022/03/24 21:16:55;;;;;;;42.67;17.87;;;5.20;72.30;;;;;;10372618;28;20159;-81
2022/03/24 21:21:56;;;;;;;43.37;20.43;;;5.20;72.40;;;;;;10389430;28;20022;-81
2022/03/24 21:26:57;;;;;;;43.93;18.43;;;5.10;72.80;;;;;;10389590;28;20473;-82
2022/03/24 21:31:58;;;;;;;45.13;19.00;;;5.10;73.00;;;;;;10390120;28;20477;-82
2022/03/24 21:36:58;;;;;;;40.23;17.70;;;5.00;73.00;;;;;;10390601;28;20037;-86
2022/03/24 21:41:59;;;;;;;40.30;19.13;;;5.00;73.10;;;;;;10394643;28;20034;-85
2022/03/24 21:47:00;;;;;;;48.03;19.13;;;4.90;73.60;;;;;;10395589;28;20456;-84
2022/03/24 21:52:01;;;;;;;43.60;19.47;;;4.90;73.80;;;;;;10392450;28;20057;-84
2022/03/24 21:57:01;;;;;;;43.23;19.07;;;4.90;73.80;;;;;;10391649;28;20451;-82
2022/03/24 22:02:03;;;;;;;43.87;19.20;;;4.80;74.50;;;;;;10394211;28;20128;-82
2022/03/24 22:07:04;;;;;;;41.40;17.63;;;4.80;74.50;;;;;;10392900;28;20086;-84
2022/03/24 22:12:05;;;;;;;42.03;19.67;;;4.80;74.50;;;;;;10391304;28;20054;-84
2022/03/24 22:17:06;;;;;;;38.90;17.77;;;4.80;75.00;;;;;;10393531;28;20112;-80
2022/03/24 22:22:06;;;;;;;43.07;19.47;;;4.70;75.50;;;;;;10393159;28;20043;-83
2022/03/24 22:27:07;;;;;;;44.33;19.13;;;4.70;75.20;;;;;;10394092;28;20370;-79
2022/03/24 22:32:08;;;;;;;39.60;18.40;;;4.70;75.40;;;;;;10392391;28;20163;-81
2022/03/24 22:37:08;;;;;;;41.93;17.40;;;4.60;75.50;;;;;;10390663;28;20036;-80
2022/03/24 22:42:09;;;;;;;45.03;19.27;;;4.70;75.30;;;;;;10392596;28;20052;-85
2022/03/24 22:47:10;;;;;;;46.30;19.20;;;4.80;75.40;;;;;;10392181;28;20046;-79
2022/03/24 22:52:10;;;;;;;42.60;19.70;;;4.80;75.50;;;;;;10390751;28;20604;-80
2022/03/24 22:57:11;;;;;;;45.20;19.50;;;4.80;75.20;;;;;;10392502;28;20091;-82
2022/03/24 23:02:12;;;;;;;46.90;19.33;;;4.80;75.10;;;;;;10390192;28;20079;-80
2022/03/24 23:07:12;;;;;;;45.13;19.57;;;4.80;75.40;;;;;;10390449;28;20045;-84
2022/03/24 23:12:13;;;;;;;41.73;19.07;;;4.70;75.90;;;;;;10391710;28;20517;-82
2022/03/24 23:17:14;;;;;;;41.23;19.20;;;4.60;75.80;;;;;;10399380;28;20029;-79
2022/03/24 23:22:14;;;;;;;57.83;27.37;;;4.50;75.50;;;;;;10406800;28;20037;-79
2022/03/24 23:27:15;;;;;;;55.40;24.70;;;4.40;75.80;;;;;;10406257;28;20125;-80
2022/03/24 23:32:16;;;;;;;67.17;29.40;;;4.30;76.50;;;;;;10407508;28;20029;-80
2022/03/24 23:37:17;;;;;;;54.87;27.40;;;4.20;77.00;;;;;;10407094;28;20068;-79
2022/03/24 23:42:17;;;;;;;68.20;29.83;;;4.10;76.90;;;;;;10405532;28;20034;-86
2022/03/24 23:47:18;;;;;;;71.03;29.03;;;4.20;76.60;;;;;;10405897;28;20041;-79
2022/03/24 23:52:18;;;;;;;60.77;25.17;;;4.20;77.20;;;;;;10392795;28;20087;-80
2022/03/24 23:57:19;;;;;;;67.53;26.47;;;4.10;76.90;;;;;;10413615;28;20038;-84
